Time;durP1;ratioP1;P1;durP2;ratioP2;P2;SDS_P1;SDS_P2;PMS_P1;PMS_P2;Temp;Humidity;BMP_temperature;BMP_pressure;BME280_temperature;BME280_humidity;BME280_pressure;Samples;Min_cycle;Max_cycle;Signal;HPM_P1;HPM_P2
2022/09/12 00:01:29;;;;;;;20.88;18.67;;;19.60;99.90;;;20.07;76.94;101559.72;5115705;28;20043;-75
2022/09/12 00:04:00;;;;;;;20.27;18.17;;;19.60;99.90;;;20.16;76.91;101556.72;5115590;28;20054;-75
2022/09/12 00:06:31;;;;;;;20.67;18.60;;;19.70;99.90;;;20.20;76.62;101549.47;5116187;28;20051;-75
2022/09/12 00:09:03;;;;;;;21.92;19.73;;;19.80;99.90;;;20.08;76.78;101525.66;5116058;28;20142;-75
2022/09/12 00:11:32;;;;;;;21.10;18.88;;;19.80;99.90;;;20.06;76.58;101549.88;5115785;28;20048;-75
2022/09/12 00:14:01;;;;;;;21.05;18.90;;;19.60;99.90;;;20.13;76.65;101550.59;5115144;28;20092;-75
2022/09/12 00:16:32;;;;;;;20.38;18.27;;;19.60;99.90;;;20.15;76.54;101548.72;5114554;28;20401;-76
2022/09/12 00:19:01;;;;;;;21.02;18.98;;;19.70;99.90;;;19.99;76.68;101558.19;5115318;28;20051;-75
2022/09/12 00:21:29;;;;;;;23.70;19.88;;;19.50;99.90;;;20.01;76.78;101556.34;5115507;28;20422;-75
2022/09/12 00:23:59;;;;;;;20.77;18.63;;;19.50;99.90;;;20.08;76.72;101552.53;5115199;28;20044;-74
2022/09/12 00:26:27;;;;;;;21.23;19.08;;;19.60;99.90;;;20.02;76.22;101552.72;5115181;28;20043;-75
2022/09/12 00:28:56;;;;;;;20.33;18.02;;;19.60;99.90;;;20.00;76.00;101550.09;5115371;28;20047;-75
2022/09/12 00:31:26;;;;;;;19.60;17.73;;;19.60;99.90;;;19.99;75.96;101548.34;5115124;28;20092;-75
2022/09/12 00:33:56;;;;;;;;;;;19.50;99.90;;;19.86;75.88;101544.25;5115446;28;20095;-75
2022/09/12 00:36:27;;;;;;;19.65;17.77;;;19.60;99.90;;;19.90;75.83;101545.94;5114831;28;19926;-75
2022/09/12 00:38:56;;;;;;;19.75;17.55;;;19.50;99.90;;;19.86;75.99;101538.91;5114596;28;20084;-75
2022/09/12 00:41:29;;;;;;;20.83;17.38;;;19.40;99.90;;;19.85;76.04;101547.00;5114792;28;20403;-74
2022/09/12 00:44:00;;;;;;;20.67;18.58;;;19.40;99.90;;;19.86;75.93;101541.59;5114544;28;20036;-74
2022/09/12 00:46:38;;;;;;;20.23;18.02;;;19.40;99.90;;;19.89;75.91;101540.63;5114492;28;20044;-74
2022/09/12 00:49:14;;;;;;;22.55;19.00;;;19.50;99.90;;;19.97;75.71;101539.47;5114264;28;20052;-75
2022/09/12 00:51:47;;;;;;;19.52;17.52;;;19.60;99.90;;;19.95;75.61;101538.63;5114734;28;20053;-75
2022/09/12 00:54:21;;;;;;;20.85;18.17;;;19.50;99.90;;;19.78;75.73;101538.28;5114383;28;20043;-75
2022/09/12 00:56:57;;;;;;;20.55;18.40;;;19.50;99.90;;;19.85;76.11;101534.47;5114155;28;20044;-74
2022/09/12 00:59:31;;;;;;;19.90;17.17;;;19.40;99.90;;;19.82;76.08;101529.22;5114307;28;20122;-73
2022/09/12 01:01:59;;;;;;;19.55;17.63;;;19.40;99.90;;;19.78;76.33;101525.72;5113249;28;20047;-74
2022/09/12 01:04:29;;;;;;;19.30;17.25;;;19.40;99.90;;;19.76;76.88;101526.72;5113301;28;20047;-75
2022/09/12 01:06:58;;;;;;;22.33;18.50;;;19.30;99.90;;;19.62;77.04;101521.78;5114408;28;20416;-75
2022/09/12 01:09:27;;;;;;;20.27;17.90;;;19.20;99.90;;;19.62;77.05;101518.22;5114831;28;20071;-75
2022/09/12 01:11:58;;;;;;;18.90;17.13;;;19.10;99.90;;;19.58;77.05;101517.44;5114180;28;20100;-73
2022/09/12 01:14:26;;;;;;;20.50;18.30;;;19.10;99.90;;;19.72;76.85;101522.38;5114297;28;20067;-74
2022/09/12 01:16:54;;;;;;;20.05;17.92;;;19.20;99.90;;;19.55;76.66;101514.81;5113096;28;20066;-75
2022/09/12 01:20:39;;;;;;;19.95;17.52;;;19.20;99.90;;;19.39;77.20;101515.34;5114239;28;20044;-74
2022/09/12 01:23:38;;;;;;;19.08;17.15;;;19.00;99.90;;;19.33;77.27;101520.91;5086785;28;20051;-74
2022/09/12 01:26:40;;;;;;;20.27;18.15;;;18.90;99.90;;;19.24;77.56;101516.63;5114504;28;20058;-74
2022/09/12 01:29:40;;;;;;;19.30;17.38;;;18.80;99.90;;;19.17;77.55;101509.72;5111566;28;20401;-74
2022/09/12 01:32:19;;;;;;;20.10;18.08;;;18.80;99.90;;;18.99;78.43;101512.06;5113891;28;20047;-74
2022/09/12 01:34:52;;;;;;;20.52;18.23;;;18.60;99.90;;;18.97;78.89;101508.53;5114362;28;20058;-74
2022/09/12 01:37:33;;;;;;;22.88;19.05;;;18.50;99.90;;;18.76;79.52;101508.22;5113895;28;20408;-75
2022/09/12 01:40:12;;;;;;;20.52;18.33;;;18.40;99.90;;;18.72;79.95;101493.13;5113699;28;20429;-75
2022/09/12 01:42:47;;;;;;;20.50;18.40;;;18.30;99.90;;;18.73;79.81;101494.91;5113669;28;20100;-74
2022/09/12 01:45:21;;;;;;;20.58;18.48;;;18.30;99.90;;;18.66;79.98;101481.72;5113617;28;20054;-75
2022/09/12 01:47:57;;;;;;;22.40;18.73;;;18.30;99.90;;;18.61;80.17;101468.44;5113809;28;20058;-75
2022/09/12 01:50:32;;;;;;;19.85;17.75;;;18.30;99.90;;;18.76;80.41;101481.41;5113701;28;20040;-75
2022/09/12 01:53:05;;;;;;;20.55;18.05;;;18.30;99.90;;;18.77;80.24;101485.84;5113526;28;20044;-75
2022/09/12 01:55:38;;;;;;;20.88;18.45;;;18.30;99.90;;;18.78;80.27;101484.91;5113527;28;20046;-75
2022/09/12 01:58:12;;;;;;;19.77;17.77;;;18.30;99.90;;;18.80;79.93;101480.41;5113650;28;20047;-75
2022/09/12 02:00:47;;;;;;;20.48;18.42;;;18.40;99.90;;;18.90;79.52;101484.56;5113878;28;20404;-75
2022/09/12 02:03:21;;;;;;;24.08;18.65;;;18.50;99.90;;;18.87;79.46;101470.38;5113529;28;20039;-75
2022/09/12 02:05:55;;;;;;;24.55;19.38;;;18.40;99.90;;;18.75;79.82;101466.25;5113326;28;20050;-74
2022/09/12 02:08:31;;;;;;;20.88;18.63;;;18.40;99.90;;;18.71;80.28;101467.25;5113228;28;20071;-75
2022/09/12 02:11:07;;;;;;;22.38;19.08;;;18.30;99.90;;;18.67;80.58;101462.03;5113255;28;20044;-74
2022/09/12 02:13:42;;;;;;;24.13;19.65;;;18.20;99.90;;;18.75;80.67;101463.56;5113537;28;20043;-74
2022/09/12 02:16:17;;;;;;;22.67;19.58;;;18.30;99.90;;;18.58;80.58;101457.78;5113354;28;20047;-75
2022/09/12 02:18:53;;;;;;;22.52;20.23;;;18.20;99.90;;;18.46;81.20;101450.09;5113335;28;20122;-75
2022/09/12 02:21:24;;;;;;;24.80;20.13;;;18.10;99.90;;;18.48;81.64;101458.09;5113081;28;20047;-75
2022/09/12 02:23:58;;;;;;;21.75;19.45;;;18.10;99.90;;;18.61;81.23;101447.00;5113557;28;20044;-75
2022/09/12 02:26:35;;;;;;;26.95;21.40;;;18.10;99.90;;;18.61;80.92;101447.00;5113317;28;20035;-74
2022/09/12 02:29:04;;;;;;;23.05;20.45;;;18.20;99.90;;;18.64;80.87;101449.56;5113915;28;20054;-75
2022/09/12 02:31:40;;;;;;;24.48;22.02;;;18.20;99.90;;;18.68;80.67;101442.31;5113157;28;20495;-75
2022/09/12 02:34:27;;;;;;;25.35;21.38;;;18.20;99.90;;;18.45;80.75;101437.63;5113477;28;20044;-74
2022/09/12 02:37:06;;;;;;;24.33;21.83;;;18.10;99.90;;;18.34;81.50;101447.72;5113144;28;20127;-75
2022/09/12 02:39:35;;;;;;;23.83;21.25;;;17.90;99.90;;;18.25;81.97;101434.59;5116903;28;20135;-75
2022/09/12 02:42:04;;;;;;;26.30;21.92;;;17.90;99.90;;;18.23;82.57;101441.78;5117241;28;20118;-75
2022/09/12 02:44:34;;;;;;;27.70;22.85;;;17.80;99.90;;;18.19;82.77;101440.09;5116134;28;20138;-75
2022/09/12 02:47:09;;;;;;;26.80;22.88;;;17.80;99.90;;;18.27;82.67;101434.53;5117100;28;20044;-74
2022/09/12 02:49:39;;;;;;;27.75;24.08;;;17.80;99.90;;;18.16;82.56;101409.81;5117647;28;20047;-74
2022/09/12 02:52:07;;;;;;;33.20;25.48;;;17.90;99.90;;;18.33;82.71;101432.56;5117249;28;20425;-74
2022/09/12 02:54:37;;;;;;;38.97;26.50;;;17.90;99.90;;;18.47;82.46;101441.13;5116908;28;20036;-75
2022/09/12 02:57:15;;;;;;;28.35;25.27;;;18.00;99.90;;;18.37;83.11;101430.69;5116809;28;20068;-75
2022/09/12 02:59:52;;;;;;;30.33;25.88;;;18.00;99.90;;;18.33;83.30;101429.88;5116781;28;20502;-74
2022/09/12 03:02:32;;;;;;;30.95;25.27;;;17.90;99.90;;;18.45;83.47;101429.56;5116722;28;20058;-75
2022/09/12 03:05:19;;;;;;;28.93;23.70;;;18.00;99.90;;;18.32;83.60;101419.22;5116679;28;20040;-75
2022/09/12 03:08:23;;;;;;;25.33;22.08;;;17.90;99.90;;;18.38;83.54;101417.25;5117235;28;20295;-75
2022/09/12 03:11:12;;;;;;;28.05;23.48;;;17.90;99.90;;;18.45;82.99;101412.63;5116709;28;20439;-74
2022/09/12 03:13:54;;;;;;;24.63;21.98;;;18.00;99.90;;;18.47;82.96;101425.06;5117018;28;20044;-75
2022/09/12 03:16:33;;;;;;;23.60;21.00;;;18.00;99.90;;;18.51;83.05;101418.69;5116290;28;20503;-75
2022/09/12 03:19:09;;;;;;;22.45;20.15;;;18.00;99.90;;;18.51;82.75;101418.69;5116639;28;20043;-75
2022/09/12 03:21:53;;;;;;;26.63;21.48;;;18.10;99.90;;;18.52;82.76;101411.53;5116268;28;20113;-75
2022/09/12 03:24:30;;;;;;;31.38;21.85;;;18.10;99.90;;;18.66;82.30;101406.69;5116123;28;20477;-74
2022/09/12 03:27:08;;;;;;;25.30;21.30;;;18.20;99.90;;;18.53;82.40;101411.50;5116128;28;20491;-75
2022/09/12 03:29:39;;;;;;;25.67;21.85;;;18.10;99.90;;;18.48;82.49;101409.88;5115048;28;20054;-75
2022/09/12 03:32:07;;;;;;;;;;;18.00;99.90;;;18.44;82.73;101403.72;5116479;28;20043;-74
2022/09/12 03:34:35;;;;;;;28.80;23.13;;;18.00;99.90;;;18.38;82.81;101406.53;5116363;28;19924;-75
2022/09/12 03:37:05;;;;;;;26.42;22.40;;;17.90;99.90;;;18.52;83.08;101411.53;5116305;28;20047;-75
2022/09/12 03:39:34;;;;;;;29.15;22.70;;;18.00;99.90;;;18.50;82.31;101408.91;5116259;28;20480;-75
2022/09/12 03:42:02;;;;;;;27.02;23.23;;;18.00;99.90;;;18.57;82.01;101413.16;5115016;28;20109;-75
2022/09/12 03:44:30;;;;;;;27.27;23.55;;;18.10;99.90;;;18.53;81.87;101405.25;5116088;28;20477;-75
2022/09/12 03:46:59;;;;;;;31.52;23.67;;;18.10;99.90;;;18.57;81.66;101413.16;5115944;28;20232;-75
2022/09/12 03:49:27;;;;;;;29.67;23.45;;;18.10;99.90;;;18.68;81.34;101410.16;5116299;28;20058;-75
2022/09/12 03:51:55;;;;;;;27.80;22.80;;;18.20;99.90;;;18.66;81.13;101410.22;5115752;28;20040;-75
2022/09/12 03:54:25;;;;;;;28.58;24.17;;;18.20;99.90;;;18.60;81.21;101414.88;5115697;28;20036;-74
2022/09/12 03:56:53;;;;;;;27.53;24.47;;;18.20;99.90;;;18.56;81.58;101408.72;5115940;28;20039;-74
2022/09/12 03:59:21;;;;;;;30.42;25.77;;;18.10;99.90;;;18.54;81.82;101405.19;5115890;28;20801;-74
2022/09/12 04:01:49;;;;;;;28.20;23.95;;;18.10;99.90;;;18.72;81.59;101409.16;5115599;28;20048;-74
2022/09/12 04:04:18;;;;;;;30.70;25.15;;;18.20;99.90;;;18.80;81.03;101408.00;5115831;28;20417;-74
2022/09/12 04:06:46;;;;;;;29.67;25.65;;;18.40;99.90;;;18.76;80.66;101409.03;5115545;28;20054;-75
2022/09/12 04:09:14;;;;;;;33.22;25.20;;;18.40;99.90;;;18.87;80.43;101406.91;5115444;28;20077;-74
2022/09/12 04:11:44;;;;;;;31.80;24.45;;;18.40;99.90;;;18.75;80.78;101409.97;5114430;28;20389;-75
2022/09/12 04:14:12;;;;;;;28.75;25.00;;;18.30;99.90;;;18.73;80.50;101398.41;5115419;28;20048;-75
2022/09/12 04:16:40;;;;;;;28.17;24.10;;;18.30;99.90;;;18.70;80.66;101401.16;5115549;28;20035;-75
2022/09/12 04:19:11;;;;;;;28.73;25.20;;;18.30;99.90;;;18.78;80.43;101407.19;5115236;28;20492;-74
2022/09/12 04:21:40;;;;;;;30.20;24.33;;;18.30;99.90;;;18.63;80.77;101396.91;5115463;28;20043;-74
2022/09/12 04:24:08;;;;;;;30.92;26.27;;;18.20;99.90;;;18.57;81.22;101396.19;5115201;28;20534;-75
2022/09/12 04:26:36;;;;;;;29.15;24.15;;;18.10;99.90;;;18.77;80.75;101400.06;5115149;28;20408;-75
2022/09/12 04:29:06;;;;;;;30.10;24.67;;;18.30;99.90;;;18.91;79.92;101411.25;5115191;28;20043;-74
2022/09/12 04:31:34;;;;;;;27.98;24.52;;;18.40;99.90;;;18.93;79.68;101409.41;5115180;28;20049;-75
2022/09/12 04:34:03;;;;;;;30.25;25.55;;;18.50;99.90;;;19.03;79.23;101399.28;5115344;28;20039;-75
2022/09/12 04:36:32;;;;;;;27.10;23.75;;;18.60;99.90;;;19.04;78.97;101405.53;5114888;28;20040;-74
2022/09/12 04:39:01;;;;;;;30.55;24.08;;;18.60;99.90;;;19.02;78.95;101402.00;5114837;28;20048;-75
2022/09/12 04:41:32;;;;;;;30.67;25.38;;;18.60;99.90;;;19.08;78.81;101407.19;5114873;28;20047;-75
2022/09/12 04:44:02;;;;;;;;;;;18.70;99.90;;;19.15;78.03;101406.06;5115203;28;20043;-74
2022/09/12 04:46:35;;;;;;;30.88;25.55;;;18.80;99.90;;;19.19;77.83;101405.03;5115067;28;19919;-75
2022/09/12 04:49:03;;;;;;;28.67;25.20;;;18.90;99.90;;;19.19;77.86;101413.09;5115388;28;20058;-74
2022/09/12 04:51:33;;;;;;;28.10;23.80;;;18.80;99.90;;;19.02;78.27;101410.06;5115178;28;20443;-74
2022/09/12 04:54:05;;;;;;;29.63;24.67;;;18.60;99.90;;;19.02;78.45;101405.56;5115584;27;20052;-74
2022/09/12 04:56:38;;;;;;;29.63;25.42;;;18.50;99.90;;;18.69;78.17;101342.25;5113803;28;20058;-75
2022/09/12 04:59:07;;;;;;;29.10;25.67;;;18.60;99.90;;;19.13;78.07;101403.44;5114421;28;20044;-74
2022/09/12 05:01:37;;;;;;;27.67;24.00;;;18.70;99.90;;;19.15;78.05;101409.63;5114093;28;20427;-75
2022/09/12 05:04:06;;;;;;;32.85;25.55;;;18.70;99.90;;;19.13;78.15;101408.78;5114652;28;20039;-75
2022/09/12 05:06:37;;;;;;;28.10;23.75;;;18.70;99.90;;;19.09;78.36;101411.59;5114479;28;20521;-75
2022/09/12 05:09:08;;;;;;;30.80;25.50;;;18.60;99.90;;;19.02;78.44;101408.25;5114234;28;20047;-75
2022/09/12 05:11:39;;;;;;;29.52;24.05;;;18.50;99.90;;;18.94;78.54;101407.59;5114198;28;20051;-75
2022/09/12 05:14:27;;;;;;;31.60;25.05;;;18.50;99.90;;;18.79;79.52;101408.06;5114310;28;20423;-75
2022/09/12 05:16:59;;;;;;;30.55;24.92;;;18.30;99.90;;;18.70;80.19;101389.56;5114001;28;20039;-76
2022/09/12 05:19:28;;;;;;;33.60;25.55;;;18.30;99.90;;;18.36;81.59;101392.31;5114606;28;20435;-75
2022/09/12 05:21:57;;;;;;;31.25;25.75;;;18.00;99.90;;;18.10;83.28;101386.78;5114176;28;20028;-75
2022/09/12 05:24:26;;;;;;;32.75;26.58;;;17.70;99.90;;;18.15;83.54;101381.28;5114270;28;20039;-75
2022/09/12 05:26:54;;;;;;;33.85;26.38;;;17.70;99.90;;;17.93;84.73;101381.00;5114268;27;20043;-74
2022/09/12 05:29:23;;;;;;;33.40;26.30;;;17.50;99.90;;;17.81;85.60;101381.31;5113915;28;20043;-75
2022/09/12 05:31:52;;;;;;;35.80;28.10;;;17.40;99.90;;;17.77;86.00;101374.25;5114071;28;20073;-75
2022/09/12 05:34:22;;;;;;;35.88;27.85;;;17.30;99.90;;;17.60;86.74;101373.81;5113892;28;20039;-74
2022/09/12 05:36:50;;;;;;;40.67;28.00;;;17.20;99.90;;;17.63;87.00;101368.41;5114053;28;20492;-74
2022/09/12 05:39:19;;;;;;;39.95;28.20;;;17.10;99.90;;;17.63;87.02;101366.63;5112618;28;20043;-75
2022/09/12 05:41:47;;;;;;;36.70;27.77;;;17.20;99.90;;;17.67;87.07;101372.78;5113864;28;20044;-74
2022/09/12 05:44:16;;;;;;;34.83;28.98;;;17.20;99.90;;;17.79;86.90;101377.78;5113602;28;20502;-74
2022/09/12 05:46:49;;;;;;;35.58;30.02;;;17.30;99.90;;;17.87;86.71;101391.84;5113928;28;20046;-75
2022/09/12 05:49:17;;;;;;;38.08;28.50;;;17.40;99.90;;;17.87;86.09;101368.66;5113436;28;20047;-74
2022/09/12 05:51:47;;;;;;;39.78;29.40;;;17.50;99.90;;;17.99;86.18;101394.22;5113481;28;20039;-74
2022/09/12 05:54:19;;;;;;;35.85;29.38;;;17.50;99.90;;;18.11;85.59;101390.34;5113427;28;20036;-75
2022/09/12 05:56:48;;;;;;;37.00;28.48;;;17.60;99.90;;;18.14;85.24;101404.50;5113310;28;20453;-75
2022/09/12 05:59:19;;;;;;;33.55;27.42;;;17.70;99.90;;;18.18;85.34;101386.56;5113248;28;20048;-74
2022/09/12 06:01:48;;;;;;;;;;;17.70;99.90;;;18.12;85.19;101384.94;5112499;28;20043;-75
2022/09/12 06:04:17;;;;;;;36.03;28.00;;;17.70;99.90;;;18.09;85.57;101386.81;5113419;28;20398;-74
2022/09/12 06:06:47;;;;;;;36.00;27.95;;;17.60;99.90;;;18.05;85.44;101388.69;5113000;28;20131;-75
2022/09/12 06:09:16;;;;;;;;;;;17.60;99.90;;;18.18;85.48;101387.44;5113749;28;20051;-74
2022/09/12 06:11:46;;;;;;;35.67;28.85;;;17.70;99.90;;;18.27;85.08;101381.84;5113433;28;19973;-75
2022/09/12 06:14:16;;;;;;;35.08;28.45;;;17.90;99.90;;;18.36;84.65;101386.94;5112676;28;20050;-74
2022/09/12 06:16:45;;;;;;;39.22;31.35;;;17.90;99.90;;;18.33;85.00;101392.38;5113378;28;20056;-75
2022/09/12 06:19:16;;;;;;;37.95;31.20;;;17.90;99.90;;;18.32;85.03;101382.59;5112934;28;20055;-75
2022/09/12 06:21:48;;;;;;;34.70;29.40;;;17.90;99.90;;;18.45;85.01;101351.88;5113268;28;20050;-75
2022/09/12 06:24:17;;;;;;;41.90;30.83;;;18.10;99.90;;;18.86;84.08;101389.06;5113147;28;20051;-75
2022/09/12 06:26:46;;;;;;;36.47;30.05;;;18.40;99.90;;;19.09;82.91;101392.84;5112920;28;20046;-75
2022/09/12 06:29:15;;;;;;;38.15;30.55;;;18.70;99.90;;;19.18;82.28;101389.88;5113089;28;20393;-74
2022/09/12 06:31:44;;;;;;;36.17;30.50;;;18.70;99.90;;;19.30;81.69;101392.19;5113577;28;20081;-74
2022/09/12 06:34:16;;;;;;;38.40;30.02;;;18.90;99.90;;;19.53;81.19;101393.22;5113137;28;20153;-75
2022/09/12 06:36:48;;;;;;;36.47;29.67;;;19.10;99.90;;;19.67;80.89;101390.97;5113154;28;20047;-74
2022/09/12 06:39:19;;;;;;;37.25;29.38;;;19.30;99.90;;;19.77;80.82;101394.22;5113463;28;20054;-74
2022/09/12 06:41:48;;;;;;;43.47;29.88;;;19.30;99.90;;;20.10;80.48;101385.00;5112936;28;20047;-74
2022/09/12 06:44:20;;;;;;;31.33;27.05;;;19.60;99.90;;;20.22;80.14;101386.41;5112949;28;20043;-75
2022/09/12 06:46:49;;;;;;;35.63;28.75;;;19.70;99.90;;;20.38;79.19;101395.69;5113226;28;20050;-75
2022/09/12 06:49:17;;;;;;;34.25;29.60;;;20.00;99.90;;;20.59;79.23;101394.88;5112651;28;20043;-77
2022/09/12 06:51:45;;;;;;;34.42;29.25;;;20.10;99.90;;;20.74;78.20;101399.69;5112775;28;20043;-75
2022/09/12 06:54:16;;;;;;;36.38;29.70;;;20.30;99.90;;;20.93;77.47;101395.34;5113390;28;20088;-75
2022/09/12 06:56:45;;;;;;;32.55;26.77;;;20.60;99.90;;;21.09;76.40;101406.44;5112869;28;20085;-74
2022/09/12 06:59:13;;;;;;;33.65;28.33;;;20.60;99.90;;;21.21;75.78;101401.47;5112769;28;20481;-75
2022/09/12 07:01:42;;;;;;;31.45;26.77;;;20.90;99.90;;;21.39;75.38;101405.22;5112941;28;20051;-74
2022/09/12 07:04:11;;;;;;;34.83;27.67;;;21.00;99.90;;;21.57;74.62;101404.47;5113007;28;20044;-75
2022/09/12 07:06:42;;;;;;;34.40;27.15;;;21.10;99.90;;;21.81;73.87;101413.38;5112795;28;20050;-75
2022/09/12 07:09:16;;;;;;;32.38;25.83;;;21.40;99.90;;;21.88;72.68;101414.88;5112698;28;20032;-74
2022/09/12 07:11:46;;;;;;;31.48;25.80;;;21.50;99.90;;;22.14;72.10;101411.97;5112846;28;20078;-76
2022/09/12 07:14:15;;;;;;;33.65;27.35;;;21.80;99.90;;;22.12;72.29;101413.84;5112344;28;20044;-75
2022/09/12 07:16:44;;;;;;;30.00;25.77;;;21.80;99.90;;;22.27;71.98;101414.06;5112908;28;20135;-75
2022/09/12 07:19:12;;;;;;;28.17;25.17;;;21.90;99.90;;;22.42;72.24;101421.44;5112386;28;20046;-75
2022/09/12 07:21:41;;;;;;;29.90;25.35;;;22.00;99.90;;;22.77;72.11;101419.00;5112371;28;20039;-76
2022/09/12 07:24:10;;;;;;;28.92;25.33;;;22.30;99.90;;;23.11;70.29;101411.13;5112355;28;20048;-76
2022/09/12 07:26:41;;;;;;;33.70;26.83;;;22.70;99.90;;;23.23;69.42;101413.22;5116206;28;20035;-75
2022/09/12 07:29:16;;;;;;;29.10;24.88;;;22.90;99.90;;;23.22;68.41;101416.88;5116539;28;20048;-76
2022/09/12 07:32:05;;;;;;;31.95;26.27;;;22.80;99.90;;;23.37;68.23;101423.38;5116622;28;20062;-75
2022/09/12 07:34:34;;;;;;;27.88;23.65;;;23.00;99.90;;;23.34;67.75;101419.03;5116408;28;20042;-75
2022/09/12 07:37:02;;;;;;;31.13;24.50;;;23.00;99.90;;;23.20;67.94;101411.56;5116099;28;20460;-76
2022/09/12 07:39:31;;;;;;;25.60;22.90;;;22.90;99.90;;;23.41;68.14;101414.19;5115982;28;20501;-76
2022/09/12 07:42:00;;;;;;;24.05;18.33;;;23.00;99.90;;;23.62;65.68;101419.41;5116570;28;20078;-75
2022/09/12 07:44:29;;;;;;;22.92;17.17;;;23.30;99.90;;;23.68;65.72;101420.94;5115923;28;20047;-75
2022/09/12 07:46:57;;;;;;;22.98;17.98;;;23.40;99.90;;;23.93;65.26;101422.34;5115927;28;20484;-76
2022/09/12 07:49:25;;;;;;;20.92;16.75;;;23.60;99.90;;;24.19;63.60;101426.44;5116254;28;20100;-76
2022/09/12 07:51:53;;;;;;;17.95;14.18;;;23.90;99.90;;;24.32;63.16;101429.38;5116166;28;20057;-76
2022/09/12 07:54:22;;;;;;;15.82;12.80;;;24.00;99.90;;;24.50;62.27;101426.59;5116115;28;20503;-75
2022/09/12 07:56:50;;;;;;;15.70;13.63;;;24.20;99.90;;;24.57;61.73;101424.41;5115750;28;20050;-76
2022/09/12 07:59:20;;;;;;;16.00;13.40;;;24.30;99.90;;;24.68;61.67;101435.56;5115650;28;20436;-76
2022/09/12 08:02:13;;;;;;;16.10;14.37;;;24.40;99.90;;;24.82;61.00;101422.16;5115584;28;20451;-75
2022/09/12 08:04:46;;;;;;;14.55;13.13;;;24.50;99.90;;;25.05;59.84;101433.50;5115539;28;20047;-76
2022/09/12 08:07:17;;;;;;;;;;;24.70;99.90;;;24.95;60.20;101440.38;5116513;27;20047;-74
2022/09/12 08:09:46;;;;;;;17.65;14.30;;;24.70;99.90;;;25.09;60.22;101430.63;5116216;28;19924;-76
2022/09/12 08:12:15;;;;;;;14.20;12.68;;;24.80;99.90;;;24.95;59.03;101431.41;5115312;28;20059;-76
2022/09/12 08:14:44;;;;;;;15.70;13.20;;;24.70;99.90;;;24.95;59.67;101439.53;5114170;28;20052;-75
2022/09/12 08:17:13;;;;;;;22.55;12.88;;;24.60;99.90;;;25.10;59.27;101427.84;5115230;28;20031;-76
2022/09/12 08:19:41;;;;;;;15.80;12.65;;;24.70;99.90;;;24.99;59.47;101384.22;5115341;28;20097;-74
2022/09/12 08:22:10;;;;;;;15.02;12.65;;;24.90;99.90;;;25.30;58.36;101432.16;5115077;28;20089;-76
2022/09/12 08:24:39;;;;;;;15.63;13.60;;;25.00;99.90;;;25.07;58.47;101354.88;5115220;27;20108;-75
2022/09/12 08:27:08;;;;;;;13.65;11.82;;;25.10;99.90;;;25.73;58.81;101423.31;5115372;28;20392;-75
2022/09/12 08:29:36;;;;;;;14.70;12.25;;;25.40;99.90;;;25.83;56.97;101421.81;5115127;28;20134;-76
2022/09/12 08:32:06;;;;;;;12.82;10.68;;;25.50;99.90;;;25.75;56.76;101427.69;5114941;28;20047;-75
2022/09/12 08:34:34;;;;;;;12.75;10.20;;;25.50;99.90;;;25.84;56.91;101408.16;5114960;28;20048;-75
2022/09/12 08:37:02;;;;;;;10.93;9.93;;;25.60;99.90;;;26.01;56.79;101425.28;5114474;28;20039;-75
2022/09/12 08:39:31;;;;;;;10.25;8.68;;;25.70;99.90;;;25.82;55.59;101418.22;5115117;28;20122;-76
2022/09/12 08:42:02;;;;;;;12.27;9.10;;;25.50;99.90;;;25.75;55.68;101427.69;5114725;28;20550;-75
2022/09/12 08:45:05;;;;;;;10.98;8.27;;;25.40;99.90;;;25.83;55.72;101425.41;5114927;28;20109;-75
2022/09/12 08:47:39;;;;;;;10.15;8.93;;;25.50;99.90;;;25.97;55.06;101421.88;5107345;28;20117;-75
2022/09/12 08:50:16;;;;;;;9.85;8.82;;;25.70;99.90;;;25.98;55.18;101406.50;5114502;28;20044;-75
2022/09/12 08:52:54;;;;;;;9.43;8.50;;;25.70;99.90;;;26.01;54.89;101417.16;5114513;28;20131;-75
2022/09/12 08:55:36;;;;;;;8.90;7.45;;;25.70;99.90;;;26.03;55.11;101420.66;5114429;28;20070;-76
2022/09/12 08:58:14;;;;;;;8.40;6.70;;;25.70;99.90;;;26.02;54.18;101425.19;5114674;28;20039;-75
2022/09/12 09:00:53;;;;;;;7.78;6.97;;;25.70;99.90;;;26.05;53.99;101432.28;5114530;28;20063;-76
2022/09/12 09:03:49;;;;;;;8.45;6.20;;;25.70;99.90;;;26.30;54.24;101422.63;5114368;28;20059;-75
2022/09/12 09:06:35;;;;;;;7.85;7.13;;;25.90;99.90;;;26.48;53.01;101418.75;5114708;28;20051;-76
2022/09/12 09:09:12;;;;;;;7.88;6.93;;;26.10;99.90;;;26.61;52.81;101422.47;5114342;28;20043;-75
2022/09/12 09:11:55;;;;;;;6.60;6.00;;;26.30;99.90;;;26.56;52.06;101397.44;5113273;28;20112;-75
2022/09/12 09:15:08;;;;;;;8.18;6.78;;;26.40;99.90;;;26.93;52.88;101422.31;5114274;28;20117;-75
2022/09/12 09:17:41;;;;;;;6.13;5.55;;;26.50;99.90;;;26.85;52.03;101408.38;5031456;28;20045;-76
2022/09/12 09:20:29;;;;;;;7.28;6.20;;;26.50;99.90;;;26.70;52.87;101402.03;5107437;28;20066;-75
2022/09/12 09:23:02;;;;;;;6.72;5.30;;;26.40;99.90;;;26.76;52.14;101412.53;5114013;28;20374;-74
2022/09/12 09:25:43;;;;;;;9.80;5.43;;;26.40;99.90;;;26.85;52.29;101413.81;5113932;28;20036;-75
2022/09/12 09:28:17;;;;;;;13.02;5.65;;;26.50;99.90;;;26.72;51.58;101408.25;5114266;28;20120;-74
2022/09/12 09:30:46;;;;;;;7.18;5.90;;;26.40;99.90;;;26.70;52.14;101399.34;5114023;28;20056;-75
2022/09/12 09:33:22;;;;;;;6.35;5.22;;;26.30;99.90;;;26.72;51.43;101386.53;5112567;28;20484;-75
2022/09/12 09:36:01;;;;;;;6.25;5.45;;;26.40;99.90;;;26.95;51.66;101393.22;5113724;28;20544;-75
2022/09/12 09:38:42;;;;;;;5.97;4.93;;;26.60;99.90;;;26.99;50.41;101392.06;5114222;28;20043;-75
2022/09/12 09:41:26;;;;;;;7.57;6.13;;;26.60;99.90;;;26.90;50.85;101388.09;5113665;28;20062;-75
2022/09/12 09:43:56;;;;;;;6.25;5.60;;;26.60;99.90;;;26.51;52.23;101377.88;5114010;28;20130;-75
2022/09/12 09:46:24;;;;;;;6.28;5.68;;;26.40;99.90;;;26.46;52.59;101373.72;5113882;28;20051;-74
2022/09/12 09:48:53;;;;;;;7.82;6.05;;;26.10;99.90;;;26.05;53.49;101372.63;5113526;28;20079;-75
2022/09/12 09:51:32;;;;;;;7.50;5.80;;;25.80;99.90;;;26.23;53.23;101369.69;5113499;28;20070;-75
2022/09/12 09:54:05;;;;;;;7.70;5.50;;;25.90;99.90;;;26.48;52.32;101378.03;5113479;28;20050;-75
2022/09/12 09:56:38;;;;;;;7.43;5.40;;;26.10;99.90;;;26.64;52.25;101373.41;5113357;28;20453;-74
2022/09/12 09:59:11;;;;;;;7.78;5.55;;;26.30;99.90;;;26.64;51.01;101372.53;5113828;28;20039;-74
2022/09/12 10:01:47;;;;;;;8.77;5.30;;;26.40;99.90;;;26.77;51.20;101366.25;5113448;28;20043;-74
2022/09/12 10:04:22;;;;;;;6.82;5.18;;;26.50;99.90;;;26.86;50.31;101372.09;5113194;27;20048;-75
2022/09/12 10:06:55;;;;;;;7.07;5.85;;;26.50;99.90;;;26.75;49.63;101364.63;5113604;28;20040;-75
2022/09/12 10:09:26;;;;;;;7.88;5.10;;;26.50;99.90;;;26.56;50.96;101354.00;5113754;28;20043;-75
2022/09/12 10:11:57;;;;;;;7.70;5.60;;;26.40;99.90;;;26.27;51.59;101362.22;5112918;28;20047;-74
2022/09/12 10:14:33;;;;;;;;;;;26.00;99.90;;;26.18;52.25;101355.53;5113622;28;20075;-74
2022/09/12 10:17:05;;;;;;;6.80;5.45;;;25.90;99.90;;;26.43;50.58;101349.44;5113743;28;20386;-75
2022/09/12 10:19:36;;;;;;;6.47;4.80;;;26.00;99.90;;;26.50;50.73;101340.84;5112915;28;20123;-75
2022/09/12 10:22:07;;;;;;;7.68;5.90;;;26.20;99.90;;;26.52;51.15;101343.44;5112702;28;20059;-75
2022/09/12 10:24:37;;;;;;;;;;;26.20;99.90;;;26.43;50.80;101358.47;5113372;28;20044;-75
2022/09/12 10:27:14;;;;;;;6.95;4.40;;;26.20;99.90;;;26.21;49.99;101328.19;5112939;28;19929;-75